Time;durP1;ratioP1;P1;durP2;ratioP2;P2;SDS_P1;SDS_P2;PMS_P1;PMS_P2;Temp;Humidity;BMP_temperature;BMP_pressure;BME280_temperature;BME280_humidity;BME280_pressure;Samples;Min_cycle;Max_cycle;Signal;HPM_P1;HPM_P2
2021/07/01 00:01:41;;;;;;;2.00;0.73;;;;;;;28.69;35.15;96506.06;4933657;28;20052;-35
2021/07/01 00:04:06;;;;;;;3.63;0.70;;;;;;;28.69;35.37;96500.78;4928923;28;20114;-35
2021/07/01 00:06:32;;;;;;;2.13;0.50;;;;;;;28.68;35.16;96501.75;4931132;28;20027;-32
2021/07/01 00:08:57;;;;;;;4.40;0.50;;;;;;;28.69;35.12;96500.78;4932912;28;20027;-34
2021/07/01 00:11:23;;;;;;;3.58;0.50;;;;;;;28.68;34.90;96499.13;4931044;28;20486;-28
2021/07/01 00:13:48;;;;;;;3.47;0.50;;;;;;;28.71;35.12;96498.06;4963452;28;20031;-34
2021/07/01 00:16:13;;;;;;;5.15;0.52;;;;;;;28.71;35.29;96498.06;4932584;28;20038;-29
2021/07/01 00:18:39;;;;;;;3.53;0.60;;;;;;;28.71;35.37;96502.50;4931834;28;20234;-32
2021/07/01 00:21:04;;;;;;;4.10;0.40;;;;;;;28.71;35.13;96502.50;4927699;28;20038;-32
2021/07/01 00:23:29;;;;;;;8.15;0.90;;;;;;;28.70;35.32;96496.38;4932096;28;20042;-36
2021/07/01 00:25:55;;;;;;;2.20;0.35;;;;;;;28.72;35.37;96498.91;4935973;28;20808;-38
2021/07/01 00:28:20;;;;;;;4.38;0.40;;;;;;;28.72;35.42;96498.91;4936009;28;20038;-32
2021/07/01 00:30:46;;;;;;;2.72;0.50;;;;;;;28.71;35.47;96497.22;4930158;28;20039;-31
2021/07/01 00:33:11;;;;;;;3.45;0.45;;;;;;;28.71;35.44;96499.88;4931441;28;20734;-30
2021/07/01 00:35:36;;;;;;;3.50;0.57;;;;;;;28.73;35.35;96511.13;4934356;28;20031;-33
2021/07/01 00:38:02;;;;;;;1.30;0.60;;;;;;;28.72;35.16;96509.44;4932499;28;20045;-30
2021/07/01 00:40:28;;;;;;;2.60;0.50;;;;;;;28.72;35.44;96509.44;4929564;28;20029;-29
2021/07/01 00:42:53;;;;;;;3.58;0.85;;;;;;;28.71;35.40;96503.31;4948916;28;20089;-35
2021/07/01 00:45:19;;;;;;;0.77;0.40;;;;;;;28.72;35.44;96512.91;4935273;28;22243;-31
2021/07/01 00:47:44;;;;;;;2.95;0.40;;;;;;;28.72;35.48;96514.72;4935972;28;20101;-33
2021/07/01 00:50:10;;;;;;;3.13;0.30;;;;;;;28.72;35.26;96509.44;4933636;28;20662;-34
2021/07/01 00:52:36;;;;;;;3.00;0.30;;;;;;;28.72;35.47;96509.44;4933934;28;20181;-31
2021/07/01 00:55:03;;;;;;;2.78;0.30;;;;;;;28.73;35.42;96505.84;4931483;28;20491;-29
2021/07/01 00:57:28;;;;;;;4.72;0.40;;;;;;;28.73;35.26;96500.59;4935307;28;20085;-33
2021/07/01 00:59:54;;;;;;;2.47;0.38;;;;;;;28.72;35.24;96499.72;4932950;28;20405;-31
2021/07/01 01:02:19;;;;;;;2.55;0.43;;;;;;;28.73;35.42;96500.59;4931524;28;20041;-35
2021/07/01 01:04:45;;;;;;;2.90;0.52;;;;;;;28.73;35.45;96500.59;4934913;28;20699;-34
2021/07/01 01:07:10;;;;;;;1.15;0.38;;;;;;;28.72;35.42;96493.63;4932631;28;20038;-35
2021/07/01 01:09:35;;;;;;;0.47;0.30;;;;;;;28.73;35.51;96503.22;4933595;28;20035;-32
2021/07/01 01:12:01;;;;;;;1.08;0.30;;;;;;;28.73;35.51;96495.31;4926692;28;20104;-33
2021/07/01 01:14:26;;;;;;;1.88;0.47;;;;;;;28.74;35.34;96497.00;4932342;28;20042;-33
2021/07/01 01:17:50;;;;;;;2.47;0.45;;;;;;;-148.56;100.00;61375.16;4934782;28;20260;-30
2021/07/01 01:21:14;;;;;;;2.05;0.43;;;;;;;-148.56;100.00;61375.16;4927925;28;20030;-29
2021/07/01 01:24:38;;;;;;;1.50;0.50;;;;;;;-148.56;100.00;61375.16;4936220;28;20054;-29
2021/07/01 01:28:02;;;;;;;2.00;0.22;;;;;;;-148.56;100.00;61375.16;4931242;28;20085;-32
2021/07/01 01:31:27;;;;;;;0.45;0.20;;;;;;;-148.56;100.00;61375.16;4932946;28;20061;-34
2021/07/01 01:34:51;;;;;;;2.65;0.30;;;;;;;-148.56;100.00;61375.16;4937780;28;20058;-31
2021/07/01 01:38:15;;;;;;;3.22;0.40;;;;;;;-148.56;100.00;61375.16;4936295;28;21426;-31
2021/07/01 01:41:39;;;;;;;2.58;0.40;;;;;;;-148.56;100.00;61375.16;4931570;28;20149;-29
2021/07/01 01:45:04;;;;;;;0.57;0.25;;;;;;;-148.56;100.00;61375.16;4931510;28;20027;-33
2021/07/01 01:47:29;;;;;;;3.70;0.30;;;;;;;28.77;35.33;96502.06;4934066;28;20935;-34
2021/07/01 01:50:53;;;;;;;0.50;0.20;;;;;;;-148.56;100.00;61375.16;4931377;28;20035;-35
2021/07/01 01:53:18;;;;;;;2.85;0.40;;;;;;;28.75;35.11;96503.97;4930856;28;20482;-33
2021/07/01 01:55:44;;;;;;;1.15;0.35;;;;;;;28.74;35.14;96499.63;4929459;28;20062;-32
2021/07/01 01:58:09;;;;;;;1.67;0.20;;;;;;;28.73;35.35;96500.59;4932790;28;20510;-32
2021/07/01 02:00:34;;;;;;;1.38;0.17;;;;;;;28.73;35.33;96500.59;4933312;28;20595;-32
2021/07/01 02:03:00;;;;;;;0.32;0.25;;;;;;;28.72;35.48;96498.91;4931445;28;20065;-35
2021/07/01 02:05:27;;;;;;;0.43;0.20;;;;;;;28.72;35.34;96498.91;4930179;28;20177;-33
2021/07/01 02:07:52;;;;;;;1.10;0.20;;;;;;;28.66;35.24;96495.75;4931001;28;20034;-32
2021/07/01 02:10:21;;;;;;;0.20;0.10;;;;;;;28.72;35.25;96504.19;4933334;28;20027;-32
2021/07/01 02:12:47;;;;;;;0.88;0.20;;;;;;;28.71;35.39;96505.13;4930633;28;20027;-32
2021/07/01 02:15:14;;;;;;;0.80;0.30;;;;;;;28.71;35.44;96505.13;4946737;28;22257;-33
2021/07/01 02:17:39;;;;;;;0.63;0.25;;;;;;;28.72;35.24;96509.44;4930583;28;20038;-29
2021/07/01 02:20:09;;;;;;;1.85;0.77;;;;;;;28.72;35.27;96509.44;4934202;28;20022;-34
2021/07/01 02:22:35;;;;;;;1.10;0.38;;;;;;;28.72;35.29;96504.19;4944690;28;20022;-31
2021/07/01 02:25:00;;;;;;;0.50;0.20;;;;;;;28.72;35.21;96504.19;4931200;28;20027;-31
2021/07/01 02:27:26;;;;;;;0.32;0.17;;;;;;;28.74;35.22;96507.53;4928904;28;20035;-35
2021/07/01 02:29:52;;;;;;;1.35;0.40;;;;;;;28.72;35.46;96512.91;4947916;28;20031;-34
2021/07/01 02:32:17;;;;;;;0.80;0.22;;;;;;;28.73;35.33;96511.13;4926098;28;20668;-32
2021/07/01 02:34:42;;;;;;;0.32;0.20;;;;;;;28.73;35.22;96512.00;4933254;28;20043;-33
2021/07/01 02:37:08;;;;;;;0.20;0.20;;;;;;;28.73;35.26;96500.59;4933603;28;20027;-34
2021/07/01 02:40:31;;;;;;;1.40;0.30;;;;;;;-148.56;100.00;61375.16;4962952;28;20100;-33
2021/07/01 02:43:16;;;;;;;0.77;0.25;;;;;;;28.73;35.26;96500.59;4933450;28;22653;-33
2021/07/01 02:45:41;;;;;;;0.15;0.15;;;;;;;28.75;35.24;96514.53;4930621;28;20445;-32
2021/07/01 02:49:05;;;;;;;1.45;0.20;;;;;;;-148.56;100.00;61375.16;4933657;28;20549;-34
2021/07/01 02:52:29;;;;;;;0.20;0.10;;;;;;;-148.56;100.00;61375.16;4930787;28;20035;-33
2021/07/01 02:55:53;;;;;;;0.52;0.30;;;;;;;-148.56;100.00;61375.16;4933567;28;20291;-31
2021/07/01 02:59:18;;;;;;;0.30;0.20;;;;;;;-148.56;100.00;61375.16;4936374;28;21021;-31
2021/07/01 03:02:42;;;;;;;1.17;0.30;;;;;;;-148.56;100.00;61375.16;4937142;28;20047;-33
2021/07/01 03:06:06;;;;;;;0.35;0.20;;;;;;;-148.56;100.00;61375.16;4932911;28;20031;-32
2021/07/01 03:09:30;;;;;;;0.80;0.20;;;;;;;-148.56;100.00;61375.16;4927271;28;20088;-33
2021/07/01 03:12:54;;;;;;;0.17;0.15;;;;;;;-148.56;100.00;61375.16;4926518;28;20133;-34
2021/07/01 03:16:19;;;;;;;0.20;0.20;;;;;;;-148.56;100.00;61375.16;4936164;28;20608;-30
2021/07/01 03:19:49;;;;;;;0.35;0.10;;;;;;;-148.56;100.00;61375.16;4941226;28;20058;-37
2021/07/01 03:23:13;;;;;;;1.73;0.30;;;;;;;-148.56;100.00;61375.16;4933074;28;20070;-31
2021/07/01 03:26:36;;;;;;;0.85;0.22;;;;;;;-148.56;100.00;61375.16;4933272;28;20077;-31
2021/07/01 03:30:00;;;;;;;1.30;0.15;;;;;;;-148.56;100.00;61375.16;4930675;28;20034;-27
2021/07/01 03:33:24;;;;;;;0.25;0.10;;;;;;;-148.56;100.00;61375.16;4931580;28;20074;-31
2021/07/01 03:35:50;;;;;;;1.05;0.32;;;;;;;28.79;35.35;96515.97;4933369;28;20038;-32
2021/07/01 03:38:15;;;;;;;2.22;0.20;;;;;;;28.76;35.54;96518.84;4934436;28;20604;-34
2021/07/01 03:40:40;;;;;;;0.80;0.17;;;;;;;28.73;35.59;96521.69;4931647;28;20039;-32
2021/07/01 03:43:06;;;;;;;0.30;0.25;;;;;;;28.74;35.62;96520.72;4934452;28;20039;-34
2021/07/01 03:45:31;;;;;;;2.08;0.38;;;;;;;28.71;35.50;96513.88;4931032;28;20031;-33
2021/07/01 03:47:57;;;;;;;1.60;0.25;;;;;;;28.71;35.47;96524.41;4936778;28;20027;-31
2021/07/01 03:50:22;;;;;;;2.42;0.40;;;;;;;28.71;35.53;96519.16;4933101;28;20634;-33
2021/07/01 03:52:47;;;;;;;2.28;0.40;;;;;;;28.71;35.85;96513.03;4932836;28;20034;-31
2021/07/01 03:55:13;;;;;;;1.70;0.30;;;;;;;28.72;35.52;96514.72;4932036;28;20552;-30
2021/07/01 03:57:38;;;;;;;0.85;0.17;;;;;;;28.69;35.53;96513.97;4936624;28;20054;-37
2021/07/01 04:00:05;;;;;;;2.83;0.30;;;;;;;28.68;35.38;96514.94;4936593;28;20920;-30
2021/07/01 04:02:31;;;;;;;2.88;0.32;;;;;;;28.71;35.47;96523.59;4934353;28;20066;-32
2021/07/01 04:04:56;;;;;;;1.48;0.17;;;;;;;28.69;35.35;96524.53;4931991;28;20885;-28
2021/07/01 04:07:21;;;;;;;2.35;0.20;;;;;;;28.68;35.47;96525.47;4932008;28;20037;-32
2021/07/01 04:09:47;;;;;;;1.33;0.30;;;;;;;28.69;35.57;96526.34;4933786;28;20445;-29
2021/07/01 04:12:12;;;;;;;1.35;0.22;;;;;;;28.69;35.55;96521.06;4934657;28;20027;-30
2021/07/01 04:14:37;;;;;;;4.10;0.40;;;;;;;28.70;35.58;96533.28;4933552;28;20046;-28
2021/07/01 04:17:03;;;;;;;2.15;0.30;;;;;;;28.70;35.60;96533.28;4932726;28;20085;-35
2021/07/01 04:19:28;;;;;;;1.50;0.30;;;;;;;28.69;35.48;96537.69;4936239;28;20099;-33
2021/07/01 04:21:54;;;;;;;1.70;0.20;;;;;;;28.71;35.52;96536.78;4931964;28;20034;-32
2021/07/01 04:24:19;;;;;;;1.17;0.20;;;;;;;28.71;35.47;96539.41;4929506;28;20807;-32
2021/07/01 04:26:45;;;;;;;0.47;0.25;;;;;;;28.69;35.28;96542.97;4932744;28;20027;-35
2021/07/01 04:29:10;;;;;;;2.28;0.45;;;;;;;28.69;35.65;96532.44;4937929;28;20489;-32
2021/07/01 04:31:35;;;;;;;0.70;0.20;;;;;;;28.69;35.46;96532.44;4929689;28;20277;-31
2021/07/01 04:34:03;;;;;;;2.05;0.30;;;;;;;28.69;35.46;96542.16;4934752;28;20437;-35
2021/07/01 04:36:28;;;;;;;1.70;0.30;;;;;;;28.69;35.42;96537.69;4933672;28;20042;-36
2021/07/01 04:38:54;;;;;;;0.75;0.30;;;;;;;28.68;35.49;96546.56;4932649;28;20768;-33
2021/07/01 04:41:20;;;;;;;0.90;0.20;;;;;;;28.69;35.48;96537.69;4933710;28;20039;-31
2021/07/01 04:43:46;;;;;;;0.45;0.43;;;;;;;28.71;35.55;96544.69;4935511;28;20769;-33
2021/07/01 04:46:12;;;;;;;0.90;0.20;;;;;;;28.69;35.55;96542.97;4934920;28;20039;-31
2021/07/01 04:48:37;;;;;;;1.08;0.20;;;;;;;28.71;35.74;96549.97;4947652;28;20476;-34
2021/07/01 04:51:02;;;;;;;0.63;0.20;;;;;;;28.69;35.78;96553.53;4931915;28;20031;-34
2021/07/01 04:53:28;;;;;;;0.43;0.20;;;;;;;28.70;35.49;96543.84;4932673;28;20031;-35
2021/07/01 04:55:53;;;;;;;1.02;0.50;;;;;;;28.66;35.50;96539.72;4933526;28;21048;-31
2021/07/01 04:58:19;;;;;;;1.13;0.40;;;;;;;28.70;35.53;96543.84;4932780;28;20102;-35
2021/07/01 05:00:45;;;;;;;2.05;0.20;;;;;;;28.71;35.58;96544.69;4931758;28;20243;-34
2021/07/01 05:03:11;;;;;;;1.85;0.28;;;;;;;28.71;35.67;96549.97;4931184;28;20043;-35
2021/07/01 05:05:36;;;;;;;0.47;0.20;;;;;;;28.68;35.45;96546.56;4929605;28;22560;-30
2021/07/01 05:08:02;;;;;;;0.57;0.30;;;;;;;28.71;35.59;96544.69;4929886;28;20038;-30
2021/07/01 05:10:27;;;;;;;1.50;0.20;;;;;;;28.69;35.54;96553.53;4932213;28;20589;-31
2021/07/01 05:12:55;;;;;;;0.90;0.35;;;;;;;28.69;35.41;96550.88;4961434;28;20142;-33
2021/07/01 05:15:22;;;;;;;0.40;0.10;;;;;;;28.70;35.58;96551.75;4933463;28;20106;-31
2021/07/01 05:17:48;;;;;;;0.52;0.20;;;;;;;28.69;35.44;96550.88;4929211;28;20063;-30
2021/07/01 05:20:13;;;;;;;0.70;0.30;;;;;;;28.69;35.59;96553.53;4930498;28;20031;-33
2021/07/01 05:22:38;;;;;;;0.88;0.28;;;;;;;28.64;35.61;96545.09;4933781;28;20820;-29
2021/07/01 05:25:04;;;;;;;2.85;0.32;;;;;;;28.69;35.61;96548.25;4930378;28;20051;-33
2021/07/01 05:27:30;;;;;;;0.20;0.15;;;;;;;28.68;35.63;96551.84;4930706;28;20054;-33
2021/07/01 05:29:55;;;;;;;0.55;0.30;;;;;;;28.69;35.92;96548.25;4929419;28;20518;-28
2021/07/01 05:32:20;;;;;;;1.55;0.20;;;;;;;28.69;35.76;96548.25;4930107;28;20058;-34
2021/07/01 05:34:46;;;;;;;1.40;0.25;;;;;;;28.69;35.56;96548.25;4935587;28;20038;-29
2021/07/01 05:37:11;;;;;;;1.10;0.20;;;;;;;28.69;35.50;96548.25;4929443;28;22157;-32
2021/07/01 05:39:37;;;;;;;3.63;0.30;;;;;;;28.69;35.71;96548.25;4927826;28;20697;-33
2021/07/01 05:42:03;;;;;;;3.30;0.40;;;;;;;28.71;35.77;96549.97;4929588;28;20031;-31
2021/07/01 05:44:28;;;;;;;0.28;0.28;;;;;;;28.69;35.79;96550.88;4931579;28;20070;-32
2021/07/01 05:47:52;;;;;;;0.38;0.20;;;;;;;-148.56;100.00;61375.16;4928817;28;20034;-34
2021/07/01 05:51:17;;;;;;;1.05;0.22;;;;;;;-148.56;100.00;61375.16;4936055;28;20037;-32
2021/07/01 05:54:52;;;;;;;0.35;0.20;;;;;;;-148.56;100.00;61375.16;4925898;28;20026;-31
2021/07/01 05:58:16;;;;;;;0.82;0.22;;;;;;;-148.56;100.00;61375.16;4927284;28;20035;-33
2021/07/01 06:01:40;;;;;;;2.83;0.30;;;;;;;-148.56;100.00;61375.16;4931968;28;20101;-30
2021/07/01 06:05:04;;;;;;;3.97;0.43;;;;;;;-148.56;100.00;61375.16;4933939;28;20030;-33
2021/07/01 06:08:28;;;;;;;1.25;0.30;;;;;;;-148.56;100.00;61375.16;4935345;28;20035;-35
2021/07/01 06:11:52;;;;;;;2.10;0.55;;;;;;;-148.56;100.00;61375.16;4933769;28;20225;-29
2021/07/01 06:15:16;;;;;;;0.68;0.20;;;;;;;-148.56;100.00;61375.16;4931813;28;20661;-34
2021/07/01 06:17:42;;;;;;;4.32;0.40;;;;;;;28.77;35.78;96567.97;4934887;28;20121;-33
2021/07/01 06:20:09;;;;;;;1.02;0.28;;;;;;;28.74;35.71;96570.81;4931811;28;20018;-32
2021/07/01 06:22:34;;;;;;;4.22;0.32;;;;;;;28.72;35.75;96567.47;4929489;28;20034;-31
2021/07/01 06:24:59;;;;;;;0.63;0.30;;;;;;;28.71;35.70;96568.41;4923454;28;20034;-33
2021/07/01 06:27:33;;;;;;;0.20;0.20;;;;;;;28.72;35.91;96564.81;4925716;28;21393;-34
2021/07/01 06:30:00;;;;;;;2.40;0.40;;;;;;;28.72;35.65;96572.72;4928248;28;20256;-32
2021/07/01 06:32:25;;;;;;;6.22;0.40;;;;;;;28.71;35.83;96573.69;4935130;28;20042;-31
2021/07/01 06:34:50;;;;;;;2.03;0.30;;;;;;;28.71;35.78;96573.69;4931340;28;20034;-31
2021/07/01 06:37:16;;;;;;;0.90;0.30;;;;;;;28.70;36.07;96578.09;4932318;28;20767;-32
2021/07/01 06:39:42;;;;;;;3.70;0.40;;;;;;;28.71;36.03;96578.97;4929712;28;20228;-33
2021/07/01 06:42:08;;;;;;;11.85;0.73;;;;;;;28.70;35.89;96580.75;4931998;28;20530;-33
2021/07/01 06:44:33;;;;;;;10.57;0.70;;;;;;;28.71;35.56;96578.97;4930697;28;20027;-35
2021/07/01 06:46:58;;;;;;;3.08;0.60;;;;;;;28.67;35.35;96581.81;4935611;28;20085;-32
2021/07/01 06:49:24;;;;;;;6.35;0.70;;;;;;;28.68;34.84;96580.03;4948754;28;20039;-31
2021/07/01 06:51:49;;;;;;;6.60;0.98;;;;;;;28.66;34.44;96579.25;4940487;28;20046;-33
2021/07/01 06:54:17;;;;;;;4.32;1.02;;;;;;;28.64;34.54;96584.63;4947670;28;20130;-31
2021/07/01 06:56:45;;;;;;;3.72;0.70;;;;;;;28.63;34.24;96588.22;4938969;28;20039;-30
2021/07/01 06:59:11;;;;;;;4.63;0.63;;;;;;;28.61;34.26;96587.50;4948729;28;20030;-28
2021/07/01 07:01:37;;;;;;;0.82;0.60;;;;;;;28.60;34.27;96596.34;4928098;28;20125;-32
2021/07/01 07:04:04;;;;;;;3.80;0.75;;;;;;;28.59;34.32;96589.38;4930006;28;20077;-30
2021/07/01 07:06:30;;;;;;;3.45;0.70;;;;;;;28.57;34.18;96596.56;4930592;28;20141;-35
2021/07/01 07:08:56;;;;;;;0.98;0.57;;;;;;;28.56;34.27;96589.59;4960705;28;20414;-28
2021/07/01 07:11:22;;;;;;;4.90;1.13;;;;;;;28.55;34.04;96594.03;4930278;28;20058;-33
2021/07/01 07:13:47;;;;;;;2.53;0.80;;;;;;;28.53;33.94;96590.63;4947239;28;20039;-33
2021/07/01 07:16:13;;;;;;;2.90;0.90;;;;;;;28.52;34.08;96590.75;4946711;28;20027;-29
2021/07/01 07:18:39;;;;;;;2.92;0.82;;;;;;;28.51;33.90;96597.81;4943903;28;20026;-34
2021/07/01 07:21:04;;;;;;;3.58;0.70;;;;;;;28.48;33.36;96591.88;4930159;28;20023;-27
2021/07/01 07:23:31;;;;;;;3.65;0.90;;;;;;;28.41;33.22;96599.38;4929827;28;20322;-30
2021/07/01 07:25:57;;;;;;;1.13;0.85;;;;;;;28.35;33.26;96611.19;4931864;28;20129;-33
2021/07/01 07:28:25;;;;;;;2.08;1.02;;;;;;;28.25;33.25;96602.16;4932184;28;20685;-27
2021/07/01 07:30:54;;;;;;;2.65;0.85;;;;;;;28.15;33.30;96607.22;4929090;28;20073;-34
2021/07/01 07:33:22;;;;;;;2.75;0.75;;;;;;;28.07;33.03;96607.69;4937452;28;20755;-28
2021/07/01 07:35:48;;;;;;;1.13;1.02;;;;;;;27.98;33.23;96605.66;4927158;28;20039;-31
2021/07/01 07:38:13;;;;;;;2.05;0.93;;;;;;;27.91;33.45;96611.34;4932324;28;21066;-29
2021/07/01 07:40:41;;;;;;;2.10;0.98;;;;;;;27.83;33.41;96613.63;4957142;28;20026;-33
2021/07/01 07:43:10;;;;;;;1.67;1.30;;;;;;;27.77;33.53;96616.66;4931841;28;20062;-31
2021/07/01 07:45:35;;;;;;;2.33;1.35;;;;;;;27.70;33.64;96612.72;4928601;28;22353;-32
2021/07/01 07:48:00;;;;;;;1.52;1.02;;;;;;;27.63;33.52;96610.50;4931727;28;20046;-33
2021/07/01 07:50:26;;;;;;;1.67;1.27;;;;;;;27.60;33.60;96607.16;4930374;28;20541;-33
2021/07/01 07:52:52;;;;;;;2.83;1.20;;;;;;;27.55;33.51;96604.84;4928825;28;20109;-35
2021/07/01 07:55:20;;;;;;;1.40;1.27;;;;;;;27.49;33.54;96599.94;4960304;28;20034;-30
2021/07/01 07:57:46;;;;;;;1.45;1.20;;;;;;;27.44;33.74;96607.28;4929670;28;20038;-28
2021/07/01 08:00:12;;;;;;;1.58;1.27;;;;;;;27.38;33.41;96598.00;4959035;28;20505;-27
2021/07/01 08:03:00;;;;;;;1.42;1.20;;;;;;;27.29;33.43;96599.41;4929048;28;20053;-34
2021/07/01 08:05:30;;;;;;;4.18;1.38;;;;;;;27.22;33.50;96603.38;4929881;28;20136;-32
2021/07/01 08:07:56;;;;;;;1.30;1.10;;;;;;;27.17;33.82;96600.19;4926737;28;20108;-36
2021/07/01 08:10:32;;;;;;;1.80;1.20;;;;;;;27.10;33.72;96600.56;4954253;28;20361;-28
2021/07/01 08:13:06;;;;;;;3.08;1.50;;;;;;;27.05;33.94;96600.00;4930449;28;20203;-31
2021/07/01 08:15:32;;;;;;;13.20;1.45;;;;;;;27.02;33.99;96602.81;4928246;28;20690;-33
2021/07/01 08:17:58;;;;;;;3.72;1.23;;;;;;;27.02;34.08;96601.97;4933448;28;20031;-36
2021/07/01 08:20:23;;;;;;;2.95;1.17;;;;;;;27.01;34.35;96595.88;4929611;28;21046;-29
2021/07/01 08:22:52;;;;;;;4.32;1.15;;;;;;;27.06;34.50;96595.59;4933744;28;20053;-33
2021/07/01 08:25:20;;;;;;;4.30;1.10;;;;;;;27.10;34.57;96597.94;4933028;28;20045;-32
2021/07/01 08:27:47;;;;;;;3.92;1.38;;;;;;;27.15;34.34;96596.81;4929956;28;20050;-32
2021/07/01 08:30:14;;;;;;;4.55;1.38;;;;;;;27.18;34.26;96601.88;4926269;28;20122;-27
2021/07/01 08:32:40;;;;;;;3.45;1.58;;;;;;;27.23;34.34;96599.81;4929761;28;20027;-34
2021/07/01 08:35:06;;;;;;;3.25;1.17;;;;;;;27.27;34.41;96596.06;4943954;28;20251;-33
2021/07/01 08:37:32;;;;;;;5.30;1.60;;;;;;;27.32;34.45;96599.25;4962231;28;20422;-31
2021/07/01 08:40:01;;;;;;;5.90;1.40;;;;;;;27.37;34.47;96606.81;4930707;28;20023;-29
2021/07/01 08:42:33;;;;;;;3.33;1.60;;;;;;;27.43;34.67;96605.59;4944826;28;20180;-34
2021/07/01 08:45:09;;;;;;;9.90;1.83;;;;;;;27.47;34.67;96604.47;4930742;28;20648;-34
2021/07/01 08:47:42;;;;;;;3.58;1.67;;;;;;;27.50;34.53;96609.56;4931246;28;20084;-29
2021/07/01 08:50:11;;;;;;;5.13;1.67;;;;;;;27.54;34.79;96603.16;4930576;28;20796;-34
2021/07/01 08:52:44;;;;;;;4.88;1.77;;;;;;;27.57;34.56;96608.19;4931736;28;20626;-33
2021/07/01 08:55:10;;;;;;;3.85;1.35;;;;;;;27.60;34.68;96608.00;4940418;28;20062;-33
2021/07/01 08:57:36;;;;;;;5.78;2.30;;;;;;;27.63;34.60;96602.59;4966521;28;20027;-31
2021/07/01 09:00:09;;;;;;;8.57;2.10;;;;;;;27.67;34.80;96612.91;4934685;28;20031;-35
2021/07/01 09:02:39;;;;;;;10.43;2.05;;;;;;;27.70;34.61;96610.09;4936060;28;20047;-29
2021/07/01 09:05:15;;;;;;;8.75;2.33;;;;;;;27.72;34.81;96610.84;4936428;28;20724;-32
2021/07/01 09:07:40;;;;;;;13.77;2.92;;;;;;;27.75;34.61;96616.75;4937236;28;20050;-30
2021/07/01 09:10:10;;;;;;;15.73;2.80;;;;;;;27.78;34.74;96623.63;4949067;28;20032;-31
2021/07/01 09:12:39;;;;;;;8.90;2.60;;;;;;;27.80;34.58;96624.34;4938784;28;20034;-32
2021/07/01 09:15:06;;;;;;;5.82;2.15;;;;;;;27.82;34.62;96622.47;4948969;28;20142;-28
2021/07/01 09:18:30;;;;;;;12.27;2.75;;;;;;;-148.56;100.00;61375.16;4936831;28;20433;-33
2021/07/01 09:20:57;;;;;;;10.02;2.67;;;;;;;27.90;34.51;96630.72;4946485;28;20038;-33
2021/07/01 09:23:22;;;;;;;6.65;2.30;;;;;;;27.90;34.42;96630.72;4936654;28;20030;-31
2021/07/01 09:25:48;;;;;;;9.52;3.10;;;;;;;27.89;34.64;96618.47;4937546;28;20484;-31
2021/07/01 09:28:13;;;;;;;10.55;2.90;;;;;;;27.91;34.55;96621.88;4924166;28;20039;-34
2021/07/01 09:30:39;;;;;;;12.60;2.90;;;;;;;27.92;34.58;96620.94;4963526;28;20042;-34
2021/07/01 09:33:08;;;;;;;11.15;3.08;;;;;;;27.94;34.66;96617.34;4949361;28;20035;-34
2021/07/01 09:35:36;;;;;;;9.13;2.92;;;;;;;27.95;34.66;96621.69;4933655;28;20249;-33
2021/07/01 09:38:06;;;;;;;10.20;2.80;;;;;;;27.97;34.57;96614.53;4935496;28;20035;-32
2021/07/01 09:40:34;;;;;;;9.07;2.85;;;;;;;27.97;34.73;96622.41;4931342;28;20031;-32
2021/07/01 09:43:02;;;;;;;9.13;3.17;;;;;;;27.95;34.51;96617.25;4950284;28;20042;-34
2021/07/01 09:45:28;;;;;;;7.72;2.65;;;;;;;28.00;34.56;96624.88;4934628;28;20047;-36
2021/07/01 09:47:54;;;;;;;9.15;2.30;;;;;;;28.00;34.60;96628.31;4937829;28;20189;-35
2021/07/01 09:50:24;;;;;;;5.88;2.55;;;;;;;28.01;34.48;96621.28;4931117;28;20840;-32
2021/07/01 09:52:51;;;;;;;9.07;2.67;;;;;;;28.02;34.50;96622.97;4948648;28;20125;-34
2021/07/01 09:55:16;;;;;;;7.53;2.30;;;;;;;28.04;34.59;96631.63;4933580;28;20081;-33
2021/07/01 09:57:45;;;;;;;7.53;2.35;;;;;;;28.04;34.66;96621.09;4947547;28;20862;-32
2021/07/01 10:00:12;;;;;;;12.40;2.60;;;;;;;28.04;34.57;96627.19;4931390;28;20081;-32
2021/07/01 10:02:38;;;;;;;6.40;2.35;;;;;;;28.06;34.56;96624.44;4928991;28;20916;-32
2021/07/01 10:05:08;;;;;;;4.10;2.08;;;;;;;28.07;34.74;96620.88;4931147;28;20041;-36
2021/07/01 10:07:34;;;;;;;6.60;2.45;;;;;;;28.08;34.66;96633.13;4942350;28;20597;-35
2021/07/01 10:10:12;;;;;;;6.90;2.83;;;;;;;28.09;34.71;96624.25;4931547;28;20075;-31
2021/07/01 10:13:07;;;;;;;7.72;2.00;;;;;;;28.10;34.73;96631.22;4949132;28;20031;-33
2021/07/01 10:15:35;;;;;;;9.57;2.30;;;;;;;28.11;34.78;96622.34;4930298;28;20051;-30
2021/07/01 10:18:01;;;;;;;8.55;2.00;;;;;;;28.12;34.63;96629.34;4931831;28;20109;-34
2021/07/01 10:20:32;;;;;;;5.40;1.70;;;;;;;28.14;34.55;96622.16;4960703;28;20561;-33
2021/07/01 10:22:57;;;;;;;10.18;2.15;;;;;;;28.12;34.66;96624.06;4930810;28;20319;-29
2021/07/01 10:25:28;;;;;;;6.20;2.38;;;;;;;28.15;34.70;96621.22;4919156;28;20031;-34
2021/07/01 10:27:54;;;;;;;7.07;1.92;;;;;;;28.16;34.67;96612.38;4930512;28;20038;-28
2021/07/01 10:30:23;;;;;;;8.43;1.92;;;;;;;28.17;34.74;96621.97;4926713;28;20031;-33
2021/07/01 10:32:49;;;;;;;4.75;1.65;;;;;;;28.17;34.88;96621.97;4929835;28;20023;-33
2021/07/01 10:35:25;;;;;;;5.72;1.73;;;;;;;28.18;34.73;96618.38;4959848;28;20684;-32
2021/07/01 10:38:03;;;;;;;9.00;2.05;;;;;;;28.20;34.61;96627.97;4932288;28;20031;-33
2021/07/01 10:40:29;;;;;;;3.75;1.70;;;;;;;28.15;34.55;96618.56;4934031;28;20290;-28
2021/07/01 10:42:55;;;;;;;5.88;1.90;;;;;;;28.21;34.66;96624.38;4934354;28;20082;-34
2021/07/01 10:45:21;;;;;;;5.00;1.92;;;;;;;28.21;34.88;96627.88;4929086;28;20046;-33
2021/07/01 10:47:47;;;;;;;5.03;2.05;;;;;;;28.23;34.86;96625.13;4929558;28;20034;-37
2021/07/01 10:50:32;;;;;;;2.53;1.42;;;;;;;28.22;34.79;96626.91;4961652;28;20090;-35
2021/07/01 10:52:58;;;;;;;4.38;1.65;;;;;;;28.24;34.90;96629.47;4927768;28;20051;-34
2021/07/01 10:55:23;;;;;;;5.05;1.95;;;;;;;28.26;34.69;96635.53;4930042;28;20113;-32
2021/07/01 10:57:56;;;;;;;3.85;1.77;;;;;;;28.25;34.93;96633.78;4944770;28;20038;-31
2021/07/01 11:00:38;;;;;;;3.78;1.77;;;;;;;28.25;34.83;96644.31;4917598;28;20139;-34
2021/07/01 11:03:04;;;;;;;4.95;1.90;;;;;;;28.27;34.74;96637.19;4928482;28;20035;-29
2021/07/01 11:05:35;;;;;;;4.53;1.80;;;;;;;28.26;34.83;96641.63;4929661;28;20120;-32
2021/07/01 11:08:00;;;;;;;;;;;;;;;28.28;34.90;96649.44;4931450;28;20057;-32
2021/07/01 11:10:36;;;;;;;6.28;1.60;;;;;;;28.27;34.94;96653.84;4957221;28;20551;-35
2021/07/01 11:13:08;;;;;;;3.45;1.55;;;;;;;28.28;35.01;96654.69;4931769;28;20543;-28
2021/07/01 11:15:34;;;;;;;3.50;1.10;;;;;;;28.28;34.75;96654.69;4930478;28;20106;-28
2021/07/01 11:18:08;;;;;;;3.45;1.52;;;;;;;28.28;35.08;96658.19;4929574;28;20573;-34
2021/07/01 11:20:33;;;;;;;3.22;1.40;;;;;;;28.27;34.94;96660.91;4932449;28;20117;-31
2021/07/01 11:23:00;;;;;;;4.38;1.63;;;;;;;28.28;35.05;96665.22;4933632;28;20742;-34
2021/07/01 11:25:40;;;;;;;4.53;1.40;;;;;;;28.28;34.90;96665.22;4933308;28;20738;-30
2021/07/01 11:28:17;;;;;;;2.83;1.35;;;;;;;28.28;35.15;96666.09;4946431;28;20037;-30
2021/07/01 11:30:49;;;;;;;3.35;1.90;;;;;;;28.29;35.07;96664.28;4930812;28;20051;-32
2021/07/01 11:33:16;;;;;;;5.43;1.63;;;;;;;28.28;34.98;96654.69;4932848;28;20518;-34
2021/07/01 11:35:41;;;;;;;2.75;1.33;;;;;;;28.28;34.94;96659.97;4929244;28;20394;-35
2021/07/01 11:38:31;;;;;;;5.45;1.33;;;;;;;28.29;35.13;96662.50;4948035;28;20062;-36
2021/07/01 11:40:57;;;;;;;2.22;1.00;;;;;;;28.31;35.08;96670.31;4930023;28;20061;-33
2021/07/01 11:43:23;;;;;;;1.80;1.15;;;;;;;28.31;34.99;96665.03;4929515;28;20027;-33
2021/07/01 11:45:52;;;;;;;2.28;1.30;;;;;;;28.31;35.10;96665.03;4945990;28;20732;-36
2021/07/01 11:48:20;;;;;;;3.67;1.60;;;;;;;28.27;35.03;96653.00;4931046;28;20027;-32
2021/07/01 11:50:45;;;;;;;1.63;0.95;;;;;;;28.32;35.11;96661.44;4931673;28;20046;-34
2021/07/01 11:53:11;;;;;;;2.55;1.08;;;;;;;28.32;34.95;96661.44;4936921;28;20035;-28
2021/07/01 11:55:39;;;;;;;3.85;1.27;;;;;;;28.32;35.06;96661.44;4936179;28;20043;-34
2021/07/01 11:58:04;;;;;;;4.38;1.30;;;;;;;28.32;35.04;96656.19;4963919;28;20050;-28
2021/07/01 12:00:29;;;;;;;4.28;1.30;;;;;;;28.32;34.98;96666.72;4943437;28;20043;-33
2021/07/01 12:02:56;;;;;;;3.53;1.25;;;;;;;28.34;34.96;96664.00;4928134;28;20793;-30